CheckWX is a tool to help pilots better visualize weather data.  It is not intended as a substitute for an official pre-flight weather briefing.

17:23:14 UTC

KPHX TAF
Phoenix Sky Harbor International Airport
Phoenix, Arizona, USA
KPHX 041120Z 0412/0518 09006KT P6SM SKC FM041800 19006KT P6SM SKC FM042200 25011KT P6SM SKC FM050900 11006KT P6SM SKC

Apr-4@
12:00 UTC

Apr-4 @ 12:00 UTC

Apr-4@
18:00 UTC

Apr-4 @ 18:00 UTC

TAF KPHX 041120Z 0412/0518 09006KT P6SM SKC

Expired

Wind
  • 090° at 6 KTS
Cloud Levels
  • Clear skies

Apr-4@
18:00 UTC

Apr-4 @ 18:00 UTC

Apr-4@
22:00 UTC

Apr-4 @ 22:00 UTC

FM041800 19006KT P6SM SKC

Expired

Wind
  • 190° at 6 KTS
Cloud Levels
  • Clear skies

Apr-4@
22:00 UTC

Apr-4 @ 22:00 UTC

Apr-5@
09:00 UTC

Apr-5 @ 09:00 UTC

FM042200 25011KT P6SM SKC

Expired

Wind
  • 250° at 11 KTS
Cloud Levels
  • Clear skies

Apr-5@
09:00 UTC

Apr-5 @ 09:00 UTC

Apr-5@
18:00 UTC

Apr-5 @ 18:00 UTC

FM050900 11006KT P6SM SKC

From

From Standard forecast or significant change

Wind
  • 110° at 6 KTS
Cloud Levels
  • Clear skies